Time;durP1;ratioP1;P1;durP2;ratioP2;P2;SDS_P1;SDS_P2;PMS_P1;PMS_P2;Temp;Humidity;BMP_temperature;BMP_pressure;BME280_temperature;BME280_humidity;BME280_pressure;Samples;Min_cycle;Max_cycle;Signal;HPM_P1;HPM_P2
2021/08/24 00:00:17;;;;;;;;;14.00;9.25;;;;;;;;5006501;28;45250;-80
2021/08/24 00:02:42;;;;;;;;;16.75;13.00;;;;;;;;5000152;28;45278;-80
2021/08/24 00:05:10;;;;;;;;;11.25;10.25;;;;;;;;5025722;28;45467;-81
2021/08/24 00:07:35;;;;;;;;;10.00;10.00;;;;;;;;5027298;28;45420;-79
2021/08/24 00:10:00;;;;;;;;;12.25;9.00;;;;;;;;5025844;28;45400;-80
2021/08/24 00:12:26;;;;;;;;;10.75;10.50;;;;;;;;5024299;28;45410;-79
2021/08/24 00:14:51;;;;;;;;;13.00;9.25;;;;;;;;5003528;28;45435;-80
2021/08/24 00:17:16;;;;;;;;;16.00;12.67;;;;;;;;5020811;28;45353;-81
2021/08/24 00:19:41;;;;;;;;;12.00;9.00;;;;;;;;5006946;28;45301;-80
2021/08/24 00:22:08;;;;;;;;;16.50;9.00;;;;;;;;5005121;28;45405;-80
2021/08/24 00:24:33;;;;;;;;;12.00;10.50;;;;;;;;5006093;28;45559;-81
2021/08/24 00:26:59;;;;;;;;;13.00;9.67;;;;;;;;5003402;28;45395;-80
2021/08/24 00:29:24;;;;;;;;;14.33;12.67;;;;;;;;5004573;28;45226;-79
2021/08/24 00:31:49;;;;;;;;;11.33;8.33;;;;;;;;5028870;28;45202;-80
2021/08/24 00:34:14;;;;;;;;;14.33;14.33;;;;;;;;5000737;28;47486;-80
2021/08/24 00:36:40;;;;;;;;;13.00;10.33;;;;;;;;5016687;28;45217;-79
2021/08/24 00:39:05;;;;;;;;;14.25;9.00;;;;;;;;5016056;28;45257;-80
2021/08/24 00:41:30;;;;;;;;;14.33;12.67;;;;;;;;5031113;28;45457;-80
2021/08/24 00:43:55;;;;;;;;;11.33;9.67;;;;;;;;5031931;28;46355;-79
2021/08/24 00:46:27;;;;;;;;;14.00;12.00;;;;;;;;5021135;28;45151;-79
2021/08/24 00:48:53;;;;;;;;;13.50;12.75;;;;;;;;5006223;28;45363;-80
2021/08/24 00:51:20;;;;;;;;;17.25;13.50;;;;;;;;5014491;28;45139;-80
2021/08/24 00:53:46;;;;;;;;;14.00;11.75;;;;;;;;5003535;28;46434;-80
2021/08/24 00:56:11;;;;;;;;;15.00;12.25;;;;;;;;5010923;28;45159;-80
2021/08/24 00:58:37;;;;;;;;;17.00;12.50;;;;;;;;5001748;28;45164;-80
2021/08/24 01:01:03;;;;;;;;;12.50;12.50;;;;;;;;5000627;28;45631;-80
2021/08/24 01:03:34;;;;;;;;;14.00;11.75;;;;;;;;5001126;28;47251;-80
2021/08/24 01:06:01;;;;;;;;;15.50;14.75;;;;;;;;5020320;28;45508;-80
2021/08/24 01:08:29;;;;;;;;;17.50;13.75;;;;;;;;5002482;28;45328;-80
2021/08/24 01:11:08;;;;;;;;;14.75;13.00;;;;;;;;5002437;28;45988;-80
2021/08/24 01:13:38;;;;;;;;;16.25;12.25;;;;;;;;5011564;28;45501;-80
2021/08/24 01:16:19;;;;;;;;;14.75;13.50;;;;;;;;5000169;28;45449;-80
2021/08/24 01:18:53;;;;;;;;;16.50;14.75;;;;;;;;5000315;28;45178;-80
2021/08/24 01:21:28;;;;;;;;;17.50;15.25;;;;;;;;4982581;28;45472;-80
2021/08/24 01:24:05;;;;;;;;;16.00;13.25;;;;;;;;5000214;28;46506;-80
2021/08/24 01:26:53;;;;;;;;;15.75;15.50;;;;;;;;5007822;28;45234;-80
2021/08/24 01:29:25;;;;;;;;;13.50;13.25;;;;;;;;4982419;28;45546;-80
2021/08/24 01:32:11;;;;;;;;;12.75;12.75;;;;;;;;5002571;28;45402;-80
2021/08/24 01:34:36;;;;;;;;;13.50;13.00;;;;;;;;4989034;28;45543;-80
2021/08/24 01:37:03;;;;;;;;;14.00;13.00;;;;;;;;5000083;28;45218;-80
2021/08/24 01:39:40;;;;;;;;;22.75;14.00;;;;;;;;4982088;28;45442;-80
2021/08/24 01:42:09;;;;;;;;;15.50;13.25;;;;;;;;4999567;28;45783;-80
2021/08/24 01:44:38;;;;;;;;;13.75;12.25;;;;;;;;5000021;28;46115;-80
2021/08/24 01:47:07;;;;;;;;;14.75;12.25;;;;;;;;4999835;28;45351;-80
2021/08/24 01:49:40;;;;;;;;;14.25;12.75;;;;;;;;4999945;28;45282;-80
2021/08/24 01:52:08;;;;;;;;;16.50;15.00;;;;;;;;4999753;28;45558;-80
2021/08/24 01:54:45;;;;;;;;;13.75;12.50;;;;;;;;4999871;28;45454;-80
2021/08/24 01:57:14;;;;;;;;;15.50;12.75;;;;;;;;5008850;28;45467;-80
2021/08/24 01:59:42;;;;;;;;;19.75;14.00;;;;;;;;4999925;28;45526;-80
2021/08/24 02:02:13;;;;;;;;;21.75;15.75;;;;;;;;5007493;28;45259;-80
2021/08/24 02:04:48;;;;;;;;;15.00;13.25;;;;;;;;5019217;28;45578;-80
2021/08/24 02:07:14;;;;;;;;;15.75;13.75;;;;;;;;5019661;28;45440;-80
2021/08/24 02:09:41;;;;;;;;;15.25;12.75;;;;;;;;5001675;28;45466;-80
2021/08/24 02:12:08;;;;;;;;;20.75;13.50;;;;;;;;5019345;28;45322;-80
2021/08/24 02:14:36;;;;;;;;;14.25;14.00;;;;;;;;5019266;28;46210;-80
2021/08/24 02:17:03;;;;;;;;;17.50;15.25;;;;;;;;5001540;28;45254;-80
2021/08/24 02:19:40;;;;;;;;;17.75;15.25;;;;;;;;5019283;28;45465;-80
2021/08/24 02:22:10;;;;;;;;;17.75;15.75;;;;;;;;5019353;28;45303;-80
2021/08/24 02:24:39;;;;;;;;;15.25;13.50;;;;;;;;5019408;28;46363;-80
2021/08/24 02:27:07;;;;;;;;;20.00;18.25;;;;;;;;5019114;28;45290;-80
2021/08/24 02:29:32;;;;;;;;;22.25;16.25;;;;;;;;5001679;28;45459;-80
2021/08/24 02:32:04;;;;;;;;;21.50;17.25;;;;;;;;5000987;28;45308;-80
2021/08/24 02:34:38;;;;;;;;;16.75;16.00;;;;;;;;5006735;28;45684;-80
2021/08/24 02:37:22;;;;;;;;;19.50;17.50;;;;;;;;5019038;28;45482;-80
2021/08/24 02:39:47;;;;;;;;;27.75;19.75;;;;;;;;5019332;28;45391;-80
2021/08/24 02:42:19;;;;;;;;;18.00;17.67;;;;;;;;5018840;28;45297;-80
2021/08/24 02:44:49;;;;;;;;;23.50;19.25;;;;;;;;5018899;28;45473;-80
2021/08/24 02:47:15;;;;;;;;;19.25;18.25;;;;;;;;5018688;28;45469;-80
2021/08/24 02:49:40;;;;;;;;;19.75;18.75;;;;;;;;5019141;28;45379;-80
2021/08/24 02:52:08;;;;;;;;;21.75;19.50;;;;;;;;5019295;28;45412;-80
2021/08/24 02:54:40;;;;;;;;;22.75;20.75;;;;;;;;5022462;28;46574;-80
2021/08/24 02:57:06;;;;;;;;;24.00;21.25;;;;;;;;5014975;28;45558;-80
2021/08/24 02:59:31;;;;;;;;;19.75;17.75;;;;;;;;5002711;28;45337;-80
2021/08/24 03:01:57;;;;;;;;;22.25;17.50;;;;;;;;5008630;28;45479;-80
2021/08/24 03:04:23;;;;;;;;;26.25;21.25;;;;;;;;5021919;28;45425;-80
2021/08/24 03:06:51;;;;;;;;;21.00;20.75;;;;;;;;5022114;28;45298;-80
2021/08/24 03:09:17;;;;;;;;;26.50;21.25;;;;;;;;5022220;28;45329;-80
2021/08/24 03:12:01;;;;;;;;;24.00;23.50;;;;;;;;5021955;28;45398;-80
2021/08/24 03:14:35;;;;;;;;;26.00;22.50;;;;;;;;5005910;28;46435;-80
2021/08/24 03:17:05;;;;;;;;;25.25;23.25;;;;;;;;5002131;28;45568;-80
2021/08/24 03:19:32;;;;;;;;;24.00;24.00;;;;;;;;4984360;28;45360;-80
2021/08/24 03:21:59;;;;;;;;;30.00;25.00;;;;;;;;5002110;28;45605;-80
2021/08/24 03:24:24;;;;;;;;;27.75;25.50;;;;;;;;5001859;28;46437;-80
2021/08/24 03:26:50;;;;;;;;;30.50;27.00;;;;;;;;5001918;28;45163;-80
2021/08/24 03:29:17;;;;;;;;;32.00;26.25;;;;;;;;5002090;28;45218;-80
2021/08/24 03:31:44;;;;;;;;;28.50;24.75;;;;;;;;5006888;28;45341;-81
2021/08/24 03:34:09;;;;;;;;;31.00;27.00;;;;;;;;5001597;28;45334;-80
2021/08/24 03:36:35;;;;;;;;;34.00;30.00;;;;;;;;5002043;28;45323;-80
2021/08/24 03:39:00;;;;;;;;;29.50;26.50;;;;;;;;5001743;28;45439;-80
2021/08/24 03:41:25;;;;;;;;;29.00;26.00;;;;;;;;5001701;28;45317;-80
2021/08/24 03:43:51;;;;;;;;;25.00;22.25;;;;;;;;5001435;28;46385;-80
2021/08/24 03:46:16;;;;;;;;;25.75;25.50;;;;;;;;5001883;28;45416;-81
2021/08/24 03:48:41;;;;;;;;;32.00;29.67;;;;;;;;5001727;28;45369;-80
2021/08/24 03:51:07;;;;;;;;;34.67;32.00;;;;;;;;5001657;28;45408;-80
2021/08/24 03:53:33;;;;;;;;;39.00;32.00;;;;;;;;5001562;28;45345;-81
2021/08/24 03:55:58;;;;;;;;;36.00;29.50;;;;;;;;5007385;28;45195;-80
2021/08/24 03:58:23;;;;;;;;;37.33;32.00;;;;;;;;5004240;28;45088;-81
2021/08/24 04:00:48;;;;;;;;;30.25;28.00;;;;;;;;5001476;28;45149;-81
2021/08/24 04:03:14;;;;;;;;;32.25;29.75;;;;;;;;5017353;28;46347;-81
2021/08/24 04:05:39;;;;;;;;;34.00;31.75;;;;;;;;5021228;28;45234;-81
2021/08/24 04:08:05;;;;;;;;;40.25;33.00;;;;;;;;5021208;28;45355;-81
2021/08/24 04:10:30;;;;;;;;;37.25;30.00;;;;;;;;5021327;28;45210;-81
2021/08/24 04:12:55;;;;;;;;;36.00;31.67;;;;;;;;5017936;28;45329;-80
2021/08/24 04:15:21;;;;;;;;;37.00;32.67;;;;;;;;5001403;28;45290;-80
2021/08/24 04:17:46;;;;;;;;;34.33;31.33;;;;;;;;5001117;28;45538;-80
2021/08/24 04:20:12;;;;;;;;;44.67;33.00;;;;;;;;5001388;28;45432;-81
2021/08/24 04:22:39;;;;;;;;;32.00;30.00;;;;;;;;5001045;28;46453;-81
2021/08/24 04:25:04;;;;;;;;;41.00;31.00;;;;;;;;5001434;28;45435;-81
2021/08/24 04:27:29;;;;;;;;;40.75;32.50;;;;;;;;5002558;28;45409;-80
2021/08/24 04:29:55;;;;;;;;;31.50;29.25;;;;;;;;5004179;28;45373;-80
2021/08/24 04:32:27;;;;;;;;;38.33;31.33;;;;;;;;4987946;28;48261;-80
2021/08/24 04:34:53;;;;;;;;;34.25;29.00;;;;;;;;4983351;28;45654;-80
2021/08/24 04:37:18;;;;;;;;;26.00;26.00;;;;;;;;4983356;28;45408;-80
2021/08/24 04:39:44;;;;;;;;;34.75;30.25;;;;;;;;5001018;28;45357;-81
2021/08/24 04:42:09;;;;;;;;;36.67;30.67;;;;;;;;5000439;28;46015;-81
2021/08/24 04:44:34;;;;;;;;;36.67;28.67;;;;;;;;5001289;28;45289;-81
2021/08/24 04:46:59;;;;;;;;;37.00;32.00;;;;;;;;5000575;28;45404;-81
2021/08/24 04:49:25;;;;;;;;;38.67;30.00;;;;;;;;5000520;28;45398;-81
2021/08/24 04:51:50;;;;;;;;;35.75;29.75;;;;;;;;5000219;28;45426;-81
2021/08/24 04:54:17;;;;;;;;;38.33;31.67;;;;;;;;4982820;28;45800;-81
2021/08/24 04:56:42;;;;;;;;;35.50;30.00;;;;;;;;5010361;28;45408;-81
2021/08/24 04:59:07;;;;;;;;;41.00;31.00;;;;;;;;5000693;28;45327;-81
2021/08/24 05:01:32;;;;;;;;;41.67;32.33;;;;;;;;5003387;28;46598;-81
2021/08/24 05:03:58;;;;;;;;;41.67;32.33;;;;;;;;5020162;28;45377;-81
2021/08/24 05:06:23;;;;;;;;;35.00;31.00;;;;;;;;5020240;28;45243;-81
2021/08/24 05:08:48;;;;;;;;;32.33;31.33;;;;;;;;5020266;28;45281;-81
2021/08/24 05:11:13;;;;;;;;;36.33;32.00;;;;;;;;5020764;28;46297;-80
2021/08/24 05:13:38;;;;;;;;;34.00;30.00;;;;;;;;5013315;28;45161;-81
2021/08/24 05:16:08;;;;;;;;;34.67;30.00;;;;;;;;4982326;28;45261;-81
2021/08/24 05:18:33;;;;;;;;;32.75;30.00;;;;;;;;5000028;28;45495;-81
2021/08/24 05:21:02;;;;;;;;;36.75;30.00;;;;;;;;5000209;28;45424;-81
2021/08/24 05:23:28;;;;;;;;;36.00;30.00;;;;;;;;5000335;28;45516;-81
2021/08/24 05:25:53;;;;;;;;;33.00;29.33;;;;;;;;4995847;28;45385;-81
2021/08/24 05:28:18;;;;;;;;;30.67;28.67;;;;;;;;5000068;28;45205;-81
2021/08/24 05:30:43;;;;;;;;;36.67;29.67;;;;;;;;5005156;28;45394;-81
2021/08/24 05:33:08;;;;;;;;;31.33;27.33;;;;;;;;4982240;28;45309;-81
2021/08/24 05:35:34;;;;;;;;;35.33;30.33;;;;;;;;5000165;28;45260;-81
2021/08/24 05:37:59;;;;;;;;;29.33;28.00;;;;;;;;5000317;28;45505;-81
2021/08/24 05:40:24;;;;;;;;;31.75;28.50;;;;;;;;4999958;28;46484;-81
2021/08/24 05:42:50;;;;;;;;;30.50;27.75;;;;;;;;5000046;28;45220;-82
2021/08/24 05:45:15;;;;;;;;;33.50;29.25;;;;;;;;5000344;28;45366;-81
2021/08/24 05:47:41;;;;;;;;;28.75;27.00;;;;;;;;4999961;28;45224;-81
2021/08/24 05:50:06;;;;;;;;;32.67;28.33;;;;;;;;4999903;28;45397;-81
2021/08/24 05:52:31;;;;;;;;;36.25;30.00;;;;;;;;5000023;28;45335;-81
2021/08/24 05:54:57;;;;;;;;;30.33;28.33;;;;;;;;5000214;28;45468;-80
2021/08/24 05:57:22;;;;;;;;;32.50;28.00;;;;;;;;5009207;28;45247;-81
2021/08/24 05:59:48;;;;;;;;;35.33;28.33;;;;;;;;5011751;28;45428;-81
2021/08/24 06:02:13;;;;;;;;;36.50;29.50;;;;;;;;5014523;28;45514;-80
2021/08/24 06:04:38;;;;;;;;;30.67;27.67;;;;;;;;5018406;28;45675;-81
2021/08/24 06:07:04;;;;;;;;;27.33;26.00;;;;;;;;5017635;28;45399;-79
2021/08/24 06:09:29;;;;;;;;;30.25;27.75;;;;;;;;5012917;28;45458;-80
2021/08/24 06:11:54;;;;;;;;;34.00;28.00;;;;;;;;5011058;28;45443;-80
2021/08/24 06:14:21;;;;;;;;;34.75;26.00;;;;;;;;5007835;28;45438;-80
2021/08/24 06:16:47;;;;;;;;;25.25;23.50;;;;;;;;5014964;28;45392;-80
2021/08/24 06:19:12;;;;;;;;;31.00;28.50;;;;;;;;4998910;28;47450;-80
2021/08/24 06:21:38;;;;;;;;;31.00;26.75;;;;;;;;5019184;28;45439;-81
2021/08/24 06:24:05;;;;;;;;;27.25;25.25;;;;;;;;5008952;28;45395;-81
2021/08/24 06:26:30;;;;;;;;;27.00;22.75;;;;;;;;5005900;28;45254;-80
2021/08/24 06:28:55;;;;;;;;;28.25;25.25;;;;;;;;5003575;28;45433;-79
2021/08/24 06:31:24;;;;;;;;;28.50;26.50;;;;;;;;5012915;28;45246;-79
2021/08/24 06:33:50;;;;;;;;;32.00;26.00;;;;;;;;5003053;28;45283;-79
2021/08/24 06:36:15;;;;;;;;;32.50;26.75;;;;;;;;5002783;28;45437;-78
2021/08/24 06:38:41;;;;;;;;;32.50;28.50;;;;;;;;5002869;28;45439;-78
2021/08/24 06:41:06;;;;;;;;;31.25;26.75;;;;;;;;5002523;28;45436;-79
2021/08/24 06:43:31;;;;;;;;;32.67;26.00;;;;;;;;5003090;28;45274;-78
2021/08/24 06:45:57;;;;;;;;;26.50;25.50;;;;;;;;5002553;28;45455;-79
2021/08/24 06:48:22;;;;;;;;;32.25;25.50;;;;;;;;5002579;28;45377;-78
2021/08/24 06:50:48;;;;;;;;;31.75;24.50;;;;;;;;5002552;28;45241;-79
2021/08/24 06:53:13;;;;;;;;;31.75;24.25;;;;;;;;5003027;28;45271;-78
2021/08/24 06:55:39;;;;;;;;;26.00;21.00;;;;;;;;5003726;28;45243;-78
2021/08/24 06:58:06;;;;;;;;;25.50;24.75;;;;;;;;5002340;28;45236;-79
2021/08/24 07:00:31;;;;;;;;;26.25;25.25;;;;;;;;5020608;28;45165;-77
2021/08/24 07:02:58;;;;;;;;;26.25;23.25;;;;;;;;5004695;28;45313;-78
2021/08/24 07:05:24;;;;;;;;;30.75;28.00;;;;;;;;5022111;28;45443;-79
2021/08/24 07:07:49;;;;;;;;;31.75;24.75;;;;;;;;5004368;28;47428;-81
2021/08/24 07:10:15;;;;;;;;;27.00;22.25;;;;;;;;5022068;28;45351;-81
2021/08/24 07:12:41;;;;;;;;;28.50;24.00;;;;;;;;5022047;28;45427;-84
2021/08/24 07:15:07;;;;;;;;;30.25;26.25;;;;;;;;4986370;28;46176;-81
2021/08/24 07:17:33;;;;;;;;;31.50;26.50;;;;;;;;4984329;28;46771;-81
2021/08/24 07:19:58;;;;;;;;;33.25;27.50;;;;;;;;4984405;28;45254;-81
2021/08/24 07:22:23;;;;;;;;;31.00;26.00;;;;;;;;5002485;28;45396;-81
2021/08/24 07:24:49;;;;;;;;;27.75;23.00;;;;;;;;5001904;28;45164;-81
2021/08/24 07:27:14;;;;;;;;;31.00;24.00;;;;;;;;5001945;28;45230;-81
2021/08/24 07:29:39;;;;;;;;;30.00;25.00;;;;;;;;5001763;28;45339;-81
2021/08/24 07:32:05;;;;;;;;;25.67;24.00;;;;;;;;5002357;28;45325;-81
2021/08/24 07:34:30;;;;;;;;;31.75;26.25;;;;;;;;5001739;28;45238;-81
2021/08/24 07:36:55;;;;;;;;;33.67;24.67;;;;;;;;4984154;28;48303;-81
2021/08/24 07:39:20;;;;;;;;;26.00;23.00;;;;;;;;4983327;28;45231;-81
2021/08/24 07:41:45;;;;;;;;;31.00;26.33;;;;;;;;5001912;28;45423;-81
2021/08/24 07:44:11;;;;;;;;;32.67;24.33;;;;;;;;4983932;28;45314;-80
2021/08/24 07:46:36;;;;;;;;;32.75;25.50;;;;;;;;5001729;28;45298;-79
2021/08/24 07:49:01;;;;;;;;;32.00;26.75;;;;;;;;4983679;28;45369;-82
2021/08/24 07:51:27;;;;;;;;;25.00;24.50;;;;;;;;4984280;28;45233;-82
2021/08/24 07:53:52;;;;;;;;;27.00;22.33;;;;;;;;5001832;28;45482;-82
2021/08/24 07:56:18;;;;;;;;;24.00;20.00;;;;;;;;5009849;28;45195;-82
2021/08/24 07:58:43;;;;;;;;;25.00;23.50;;;;;;;;5007525;28;45353;-80
2021/08/24 08:01:08;;;;;;;;;24.25;22.00;;;;;;;;5021782;28;45372;-80
2021/08/24 08:03:34;;;;;;;;;18.75;18.25;;;;;;;;5021274;28;45406;-81
2021/08/24 08:05:59;;;;;;;;;15.00;13.00;;;;;;;;5013699;28;48444;-81
2021/08/24 08:08:24;;;;;;;;;20.00;17.00;;;;;;;;5021286;28;45300;-81
2021/08/24 08:10:50;;;;;;;;;16.50;13.75;;;;;;;;5019722;28;45329;-81
2021/08/24 08:13:15;;;;;;;;;14.50;14.50;;;;;;;;5016791;28;45533;-81
2021/08/24 08:15:41;;;;;;;;;18.67;16.33;;;;;;;;5001494;28;46208;-81
2021/08/24 08:18:08;;;;;;;;;17.00;16.00;;;;;;;;5001276;28;45250;-81
2021/08/24 08:20:33;;;;;;;;;17.00;15.00;;;;;;;;5000196;28;45254;-81
2021/08/24 08:23:00;;;;;;;;;15.25;15.00;;;;;;;;4999850;28;45547;-81
2021/08/24 08:25:25;;;;;;;;;17.50;15.00;;;;;;;;4999875;28;47096;-81
2021/08/24 08:27:51;;;;;;;;;15.75;13.25;;;;;;;;5000858;28;45269;-82
2021/08/24 08:30:16;;;;;;;;;13.00;13.00;;;;;;;;5001273;28;45254;-82
2021/08/24 08:32:43;;;;;;;;;15.50;14.00;;;;;;;;4999594;28;45555;-82
2021/08/24 08:35:09;;;;;;;;;14.25;13.00;;;;;;;;5001229;28;45458;-82
2021/08/24 08:37:34;;;;;;;;;15.00;13.50;;;;;;;;4999579;28;45357;-82
2021/08/24 08:39:59;;;;;;;;;15.33;13.00;;;;;;;;5001226;28;45343;-82
2021/08/24 08:42:30;;;;;;;;;12.25;12.25;;;;;;;;5000722;28;45402;-82
2021/08/24 08:45:10;;;;;;;;;12.50;12.50;;;;;;;;5001026;28;45518;-82
2021/08/24 08:47:59;;;;;;;;;14.50;12.75;;;;;;;;4999479;28;45562;-82
2021/08/24 08:50:43;;;;;;;;;11.00;11.00;;;;;;;;4995285;28;45299;-82
2021/08/24 08:53:11;;;;;;;;;12.50;11.25;;;;;;;;5000932;28;45230;-83
2021/08/24 08:55:47;;;;;;;;;13.75;11.50;;;;;;;;5003772;28;45282;-83
2021/08/24 08:58:41;;;;;;;;;12.75;11.25;;;;;;;;5007298;28;45293;-83
2021/08/24 09:01:14;;;;;;;;;11.50;10.75;;;;;;;;5010249;28;45355;-83
2021/08/24 09:04:04;;;;;;;;;10.25;10.25;;;;;;;;5003709;28;45227;-83
2021/08/24 09:06:29;;;;;;;;;12.25;10.50;;;;;;;;5001720;28;45337;-83
2021/08/24 09:08:57;;;;;;;;;14.00;10.75;;;;;;;;5000614;28;45404;-83
2021/08/24 09:11:27;;;;;;;;;8.25;8.25;;;;;;;;4982865;28;45419;-83
2021/08/24 09:13:57;;;;;;;;;13.25;13.25;;;;;;;;5006297;28;45473;-83
2021/08/24 09:16:32;;;;;;;;;12.25;12.25;;;;;;;;4982692;28;48593;-83
2021/08/24 09:19:03;;;;;;;;;10.00;10.00;;;;;;;;5000482;28;45325;-84
2021/08/24 09:21:34;;;;;;;;;12.25;9.75;;;;;;;;5000545;28;45421;-83
2021/08/24 09:24:03;;;;;;;;;10.25;8.50;;;;;;;;5000632;28;45345;-84
2021/08/24 09:26:47;;;;;;;;;10.00;7.00;;;;;;;;5000006;28;46235;-84
2021/08/24 09:29:14;;;;;;;;;9.50;8.50;;;;;;;;5000146;28;45230;-83
2021/08/24 09:31:39;;;;;;;;;7.25;5.75;;;;;;;;5000755;28;45362;-84
2021/08/24 09:34:05;;;;;;;;;8.00;6.50;;;;;;;;5000281;28;45430;-84
2021/08/24 09:36:30;;;;;;;;;6.25;6.00;;;;;;;;5000282;28;45420;-85
2021/08/24 09:38:57;;;;;;;;;8.25;6.75;;;;;;;;5000175;28;45313;-84
2021/08/24 09:41:25;;;;;;;;;6.50;6.50;;;;;;;;5000373;28;45396;-85
2021/08/24 09:43:55;;;;;;;;;5.00;5.00;;;;;;;;5000359;28;45187;-85
2021/08/24 09:46:20;;;;;;;;;5.75;5.50;;;;;;;;4982953;28;47442;-85
2021/08/24 09:48:57;;;;;;;;;9.33;8.00;;;;;;;;4982580;28;45348;-85
2021/08/24 09:51:36;;;;;;;;;7.50;7.00;;;;;;;;5000499;28;45355;-85
2021/08/24 09:54:03;;;;;;;;;7.50;5.00;;;;;;;;5000294;28;45468;-85
2021/08/24 09:56:32;;;;;;;;;6.00;6.00;;;;;;;;4991824;28;47225;-84
2021/08/24 09:58:58;;;;;;;;;6.75;5.00;;;;;;;;5006817;28;45531;-84
2021/08/24 10:01:23;;;;;;;;;5.00;5.00;;;;;;;;5020869;28;45179;-84
2021/08/24 10:04:03;;;;;;;;;6.00;5.00;;;;;;;;5023231;28;45226;-84
2021/08/24 10:06:31;;;;;;;;;5.75;4.00;;;;;;;;5023094;28;46427;-84
2021/08/24 10:09:15;;;;;;;;;6.50;5.00;;;;;;;;5023245;28;45479;-84
2021/08/24 10:11:41;;;;;;;;;8.75;5.75;;;;;;;;5023323;28;45463;-84
2021/08/24 10:14:20;;;;;;;;;6.00;5.25;;;;;;;;5012772;28;45380;-84
2021/08/24 10:16:46;;;;;;;;;5.25;5.25;;;;;;;;5003157;28;47150;-84
2021/08/24 10:19:16;;;;;;;;;6.00;4.00;;;;;;;;4985554;28;45253;-84
2021/08/24 10:21:44;;;;;;;;;6.50;5.00;;;;;;;;5003196;28;45411;-84
2021/08/24 10:24:12;;;;;;;;;4.75;4.75;;;;;;;;5003358;28;45246;-84
2021/08/24 10:26:38;;;;;;;;;4.75;4.75;;;;;;;;5009856;28;45364;-84
2021/08/24 10:29:08;;;;;;;;;5.50;3.50;;;;;;;;5022739;28;45343;-84
2021/08/24 10:31:39;;;;;;;;;5.25;5.25;;;;;;;;5005314;28;45265;-84
2021/08/24 10:34:34;;;;;;;;;4.00;4.00;;;;;;;;5022795;28;45467;-84
2021/08/24 10:37:14;;;;;;;;;5.75;5.75;;;;;;;;5006009;28;45347;-83
2021/08/24 10:39:39;;;;;;;;;3.75;3.00;;;;;;;;5023472;28;45347;-83
2021/08/24 10:42:07;;;;;;;;;5.50;5.00;;;;;;;;5022603;28;45509;-83
2021/08/24 10:44:44;;;;;;;;;4.00;4.00;;;;;;;;5022957;28;45337;-83
2021/08/24 10:47:30;;;;;;;;;6.00;5.00;;;;;;;;5022421;28;45454;-83
2021/08/24 10:49:57;;;;;;;;;4.25;4.25;;;;;;;;5021902;28;45321;-83
2021/08/24 10:52:45;;;;;;;;;5.25;5.25;;;;;;;;5004725;28;45572;-83
2021/08/24 10:55:13;;;;;;;;;4.50;4.00;;;;;;;;5022598;28;45523;-83
2021/08/24 10:57:45;;;;;;;;;3.75;3.75;;;;;;;;5014227;28;45569;-83
2021/08/24 11:00:30;;;;;;;;;6.75;4.00;;;;;;;;5017775;28;45591;-83
2021/08/24 11:03:07;;;;;;;;;7.00;4.00;;;;;;;;5004504;28;45257;-82
2021/08/24 11:05:54;;;;;;;;;5.50;4.00;;;;;;;;5022509;28;45450;-83
2021/08/24 11:08:19;;;;;;;;;5.50;4.50;;;;;;;;5022579;28;46416;-82
2021/08/24 11:11:04;;;;;;;;;4.00;4.00;;;;;;;;5022171;28;45455;-83
2021/08/24 11:13:29;;;;;;;;;4.00;4.00;;;;;;;;5015826;28;45504;-82
2021/08/24 11:16:00;;;;;;;;;4.00;3.67;;;;;;;;4985071;28;45376;-82
2021/08/24 11:18:28;;;;;;;;;4.00;4.00;;;;;;;;4984246;28;47377;-83
2021/08/24 11:21:02;;;;;;;;;3.50;3.50;;;;;;;;5002357;28;45424;-83
2021/08/24 11:23:28;;;;;;;;;6.00;5.00;;;;;;;;5009966;28;45305;-82
2021/08/24 11:25:56;;;;;;;;;4.00;3.00;;;;;;;;5004559;28;45682;-82
2021/08/24 11:28:39;;;;;;;;;3.25;3.25;;;;;;;;5022166;28;45373;-83
2021/08/24 11:31:10;;;;;;;;;5.25;3.50;;;;;;;;5021767;28;45460;-82
2021/08/24 11:33:55;;;;;;;;;5.50;5.00;;;;;;;;5022031;28;45159;-82
2021/08/24 11:36:31;;;;;;;;;0.50;0.50;;;;;;;;5022063;28;45521;-82
2021/08/24 11:39:06;;;;;;;;;5.25;4.00;;;;;;;;5021594;28;45362;-82
2021/08/24 11:41:32;;;;;;;;;6.50;4.00;;;;;;;;5021633;28;45321;-82
2021/08/24 11:44:08;;;;;;;;;4.00;4.00;;;;;;;;5021968;28;45459;-82
2021/08/24 11:46:54;;;;;;;;;4.25;3.25;;;;;;;;5004147;28;45543;-82
2021/08/24 11:49:23;;;;;;;;;3.00;3.00;;;;;;;;5021553;28;45501;-83
2021/08/24 11:52:09;;;;;;;;;6.00;4.00;;;;;;;;5021833;28;45266;-85
2021/08/24 11:54:48;;;;;;;;;4.50;3.25;;;;;;;;5003844;28;45269;-82
2021/08/24 11:57:18;;;;;;;;;5.50;4.25;;;;;;;;5016540;28;45453;-82
2021/08/24 11:59:48;;;;;;;;;2.50;2.00;;;;;;;;4995575;28;48955;-82
2021/08/24 12:02:18;;;;;;;;;2.75;2.75;;;;;;;;5021329;28;45338;-82
2021/08/24 12:04:45;;;;;;;;;5.00;4.00;;;;;;;;5021652;28;45305;-82
2021/08/24 12:07:15;;;;;;;;;5.25;3.50;;;;;;;;5003712;28;45550;-82
2021/08/24 12:09:42;;;;;;;;;3.50;3.50;;;;;;;;5021536;28;45343;-82
2021/08/24 12:12:10;;;;;;;;;4.00;4.00;;;;;;;;5021425;28;45422;-82
2021/08/24 12:14:55;;;;;;;;;4.75;4.75;;;;;;;;4989018;28;45309;-82
2021/08/24 12:17:21;;;;;;;;;5.25;3.25;;;;;;;;5000630;28;45230;-82
2021/08/24 12:19:59;;;;;;;;;2.00;2.00;;;;;;;;5001401;28;46325;-82
2021/08/24 12:22:57;;;;;;;;;4.75;3.00;;;;;;;;4983602;28;45381;-82
2021/08/24 12:25:34;;;;;;;;;3.00;2.25;;;;;;;;4960857;28;45306;-82
2021/08/24 12:28:00;;;;;;;;;5.00;3.00;;;;;;;;5020788;28;45328;-82
2021/08/24 12:30:28;;;;;;;;;5.25;5.25;;;;;;;;5020992;28;46859;-81
2021/08/24 12:32:53;;;;;;;;;4.00;3.00;;;;;;;;5020815;28;45577;-82
2021/08/24 12:35:32;;;;;;;;;3.33;3.33;;;;;;;;5021152;28;45376;-82
2021/08/24 12:38:00;;;;;;;;;5.00;3.00;;;;;;;;5020803;28;45494;-82
2021/08/24 12:40:38;;;;;;;;;6.25;3.00;;;;;;;;5003145;28;48585;-82
2021/08/24 12:43:15;;;;;;;;;3.75;3.00;;;;;;;;5020948;28;45307;-82
2021/08/24 12:45:40;;;;;;;;;4.50;2.25;;;;;;;;5020903;28;45415;-81
2021/08/24 12:48:09;;;;;;;;;2.50;2.50;;;;;;;;5020597;28;45507;-82
2021/08/24 12:50:34;;;;;;;;;4.25;2.75;;;;;;;;5020636;28;46574;-82
2021/08/24 12:53:19;;;;;;;;;4.67;3.67;;;;;;;;5020805;28;45390;-81
2021/08/24 12:55:45;;;;;;;;;3.00;3.00;;;;;;;;5002439;28;45494;-81
2021/08/24 12:58:15;;;;;;;;;4.00;2.00;;;;;;;;4990272;28;46196;-82
2021/08/24 13:00:42;;;;;;;;;3.00;3.00;;;;;;;;5020031;28;45508;-81
2021/08/24 13:03:22;;;;;;;;;3.00;2.00;;;;;;;;5020458;28;45426;-82
2021/08/24 13:06:07;;;;;;;;;4.00;3.75;;;;;;;;5009408;28;45399;-81
2021/08/24 13:08:32;;;;;;;;;1.00;0.00;;;;;;;;5020333;28;45375;-81
2021/08/24 13:11:18;;;;;;;;;1.00;1.00;;;;;;;;5020367;28;45357;-81
2021/08/24 13:13:55;;;;;;;;;1.00;0.00;;;;;;;;5013522;28;45592;-81
2021/08/24 13:16:23;;;;;;;;;2.00;2.00;;;;;;;;4999321;28;45322;-81
2021/08/24 13:18:52;;;;;;;;;4.25;2.25;;;;;;;;5000471;28;45328;-81
2021/08/24 13:21:25;;;;;;;;;3.50;3.00;;;;;;;;5000402;28;45435;-81
2021/08/24 13:24:00;;;;;;;;;3.25;2.00;;;;;;;;4999305;28;45400;-81
2021/08/24 13:26:27;;;;;;;;;4.50;2.25;;;;;;;;5000248;28;45239;-81
2021/08/24 13:28:57;;;;;;;;;2.75;2.00;;;;;;;;4999014;28;45604;-81
2021/08/24 13:31:33;;;;;;;;;5.00;3.25;;;;;;;;5000225;28;45427;-82
2021/08/24 13:34:02;;;;;;;;;3.50;3.50;;;;;;;;4999026;28;45511;-82
2021/08/24 13:36:28;;;;;;;;;4.25;4.25;;;;;;;;5006703;28;45230;-82
2021/08/24 13:38:55;;;;;;;;;5.00;4.00;;;;;;;;5018732;28;45812;-82
2021/08/24 13:41:23;;;;;;;;;3.00;1.50;;;;;;;;5020016;28;45449;-82
2021/08/24 13:43:53;;;;;;;;;4.00;4.00;;;;;;;;5020020;28;45240;-82
2021/08/24 13:46:35;;;;;;;;;4.50;4.50;;;;;;;;5020362;28;45232;-82
2021/08/24 13:49:03;;;;;;;;;3.25;3.25;;;;;;;;5019867;28;45454;-82
2021/08/24 13:51:43;;;;;;;;;4.00;3.00;;;;;;;;5019876;28;45390;-82
2021/08/24 13:54:08;;;;;;;;;5.50;4.50;;;;;;;;5019981;28;45227;-82
2021/08/24 13:56:38;;;;;;;;;4.75;4.25;;;;;;;;5019900;28;45543;-82
2021/08/24 13:59:05;;;;;;;;;4.25;3.50;;;;;;;;5005213;28;45497;-82
2021/08/24 14:01:35;;;;;;;;;3.00;3.00;;;;;;;;5019767;28;46081;-82
2021/08/24 14:04:21;;;;;;;;;6.25;4.50;;;;;;;;5019750;28;45209;-81
2021/08/24 14:06:54;;;;;;;;;2.75;2.75;;;;;;;;5009122;28;46318;-82
2021/08/24 14:09:31;;;;;;;;;3.25;3.25;;;;;;;;5018495;28;45269;-82
2021/08/24 14:12:00;;;;;;;;;3.00;3.00;;;;;;;;5018546;28;45652;-82
2021/08/24 14:14:48;;;;;;;;;4.50;3.25;;;;;;;;5010814;28;45523;-81
2021/08/24 14:17:21;;;;;;;;;3.50;3.00;;;;;;;;5002528;28;45490;-82
2021/08/24 14:19:46;;;;;;;;;7.00;4.75;;;;;;;;4999859;28;45411;-82
2021/08/24 14:22:13;;;;;;;;;4.00;4.00;;;;;;;;4999870;28;45359;-82
2021/08/24 14:24:39;;;;;;;;;6.25;3.25;;;;;;;;4998413;28;45412;-82
2021/08/24 14:27:05;;;;;;;;;4.25;3.50;;;;;;;;4999701;28;45144;-82
2021/08/24 14:29:31;;;;;;;;;3.00;3.00;;;;;;;;4999617;28;45471;-81
2021/08/24 14:31:58;;;;;;;;;3.00;3.00;;;;;;;;4999687;28;45664;-81
2021/08/24 14:34:35;;;;;;;;;5.00;3.75;;;;;;;;4999542;28;45360;-82
2021/08/24 14:37:05;;;;;;;;;3.00;3.00;;;;;;;;5000006;28;45371;-81